sensor_id;sensor_type;location;lat;lon;timestamp;P1;durP1;ratioP1;P2;durP2;ratioP2
35977;SDS011;22056;0.000;0.000;2023-04-24T00:01:38;0.30;;;0.30;;
35977;SDS011;22056;0.000;0.000;2023-04-24T00:04:04;0.20;;;0.20;;
35977;SDS011;22056;0.000;0.000;2023-04-24T00:06:32;0.20;;;0.20;;
35977;SDS011;22056;0.000;0.000;2023-04-24T00:09:01;0.20;;;0.20;;
35977;SDS011;22056;0.000;0.000;2023-04-24T00:11:28;0.20;;;0.20;;
35977;SDS011;22056;0.000;0.000;2023-04-24T00:13:54;0.30;;;0.30;;
35977;SDS011;22056;0.000;0.000;2023-04-24T00:16:20;0.28;;;0.28;;
35977;SDS011;22056;0.000;0.000;2023-04-24T00:18:46;0.20;;;0.20;;
35977;SDS011;22056;0.000;0.000;2023-04-24T00:21:17;0.30;;;0.30;;
35977;SDS011;22056;0.000;0.000;2023-04-24T00:23:43;0.22;;;0.22;;
35977;SDS011;22056;0.000;0.000;2023-04-24T00:26:10;0.20;;;0.20;;
35977;SDS011;22056;0.000;0.000;2023-04-24T00:28:36;0.22;;;0.20;;
35977;SDS011;22056;0.000;0.000;2023-04-24T00:31:02;0.20;;;0.20;;
35977;SDS011;22056;0.000;0.000;2023-04-24T00:33:28;0.20;;;0.20;;
35977;SDS011;22056;0.000;0.000;2023-04-24T00:35:54;0.30;;;0.30;;
35977;SDS011;22056;0.000;0.000;2023-04-24T00:38:20;0.20;;;0.20;;
35977;SDS011;22056;0.000;0.000;2023-04-24T00:40:47;0.20;;;0.20;;
35977;SDS011;22056;0.000;0.000;2023-04-24T00:43:15;0.20;;;0.20;;
35977;SDS011;22056;0.000;0.000;2023-04-24T00:45:41;0.30;;;0.20;;
35977;SDS011;22056;0.000;0.000;2023-04-24T00:48:08;0.30;;;0.30;;
35977;SDS011;22056;0.000;0.000;2023-04-24T00:50:35;0.20;;;0.20;;
35977;SDS011;22056;0.000;0.000;2023-04-24T00:53:02;0.25;;;0.25;;
35977;SDS011;22056;0.000;0.000;2023-04-24T00:55:28;0.43;;;0.28;;
35977;SDS011;22056;0.000;0.000;2023-04-24T00:57:54;0.20;;;0.20;;
35977;SDS011;22056;0.000;0.000;2023-04-24T01:00:20;0.35;;;0.35;;
35977;SDS011;22056;0.000;0.000;2023-04-24T01:02:47;0.30;;;0.22;;
35977;SDS011;22056;0.000;0.000;2023-04-24T01:05:14;0.20;;;0.20;;
35977;SDS011;22056;0.000;0.000;2023-04-24T01:07:43;0.20;;;0.20;;
35977;SDS011;22056;0.000;0.000;2023-04-24T01:10:10;0.50;;;0.40;;
35977;SDS011;22056;0.000;0.000;2023-04-24T01:12:36;0.40;;;0.25;;
35977;SDS011;22056;0.000;0.000;2023-04-24T01:15:03;0.30;;;0.30;;
35977;SDS011;22056;0.000;0.000;2023-04-24T01:17:29;0.30;;;0.30;;
35977;SDS011;22056;0.000;0.000;2023-04-24T01:19:56;0.20;;;0.20;;
35977;SDS011;22056;0.000;0.000;2023-04-24T01:22:22;0.30;;;0.30;;
35977;SDS011;22056;0.000;0.000;2023-04-24T01:24:48;0.20;;;0.20;;
35977;SDS011;22056;0.000;0.000;2023-04-24T01:27:15;0.38;;;0.30;;
35977;SDS011;22056;0.000;0.000;2023-04-24T01:29:41;0.52;;;0.30;;
35977;SDS011;22056;0.000;0.000;2023-04-24T01:32:07;0.35;;;0.35;;
35977;SDS011;22056;0.000;0.000;2023-04-24T01:34:33;0.30;;;0.30;;
35977;SDS011;22056;0.000;0.000;2023-04-24T01:36:59;0.43;;;0.30;;
35977;SDS011;22056;0.000;0.000;2023-04-24T01:39:26;0.32;;;0.30;;
35977;SDS011;22056;0.000;0.000;2023-04-24T01:41:53;0.20;;;0.20;;
35977;SDS011;22056;0.000;0.000;2023-04-24T01:44:20;0.57;;;0.30;;
35977;SDS011;22056;0.000;0.000;2023-04-24T01:46:46;0.20;;;0.20;;
35977;SDS011;22056;0.000;0.000;2023-04-24T01:49:12;0.30;;;0.30;;
35977;SDS011;22056;0.000;0.000;2023-04-24T01:51:38;0.30;;;0.30;;
35977;SDS011;22056;0.000;0.000;2023-04-24T01:54:04;0.30;;;0.30;;
35977;SDS011;22056;0.000;0.000;2023-04-24T01:56:31;0.57;;;0.40;;
35977;SDS011;22056;0.000;0.000;2023-04-24T01:58:59;0.40;;;0.40;;
35977;SDS011;22056;0.000;0.000;2023-04-24T02:01:26;1.02;;;0.40;;
35977;SDS011;22056;0.000;0.000;2023-04-24T02:03:52;0.30;;;0.30;;
35977;SDS011;22056;0.000;0.000;2023-04-24T02:06:18;0.30;;;0.30;;
35977;SDS011;22056;0.000;0.000;2023-04-24T02:08:44;0.47;;;0.45;;
35977;SDS011;22056;0.000;0.000;2023-04-24T02:11:10;0.47;;;0.30;;
35977;SDS011;22056;0.000;0.000;2023-04-24T02:13:36;0.20;;;0.20;;
35977;SDS011;22056;0.000;0.000;2023-04-24T02:16:03;0.20;;;0.20;;
35977;SDS011;22056;0.000;0.000;2023-04-24T02:18:29;0.30;;;0.30;;
35977;SDS011;22056;0.000;0.000;2023-04-24T02:20:55;0.30;;;0.30;;
35977;SDS011;22056;0.000;0.000;2023-04-24T02:23:21;0.40;;;0.38;;
35977;SDS011;22056;0.000;0.000;2023-04-24T02:25:47;0.85;;;0.32;;
35977;SDS011;22056;0.000;0.000;2023-04-24T02:28:13;0.30;;;0.30;;
35977;SDS011;22056;0.000;0.000;2023-04-24T02:30:39;0.30;;;0.30;;
35977;SDS011;22056;0.000;0.000;2023-04-24T02:33:06;0.32;;;0.30;;
35977;SDS011;22056;0.000;0.000;2023-04-24T02:35:32;0.40;;;0.30;;
35977;SDS011;22056;0.000;0.000;2023-04-24T02:37:58;0.57;;;0.40;;
35977;SDS011;22056;0.000;0.000;2023-04-24T02:40:24;0.30;;;0.30;;
35977;SDS011;22056;0.000;0.000;2023-04-24T02:42:50;0.47;;;0.40;;
35977;SDS011;22056;0.000;0.000;2023-04-24T02:45:17;0.30;;;0.30;;
35977;SDS011;22056;0.000;0.000;2023-04-24T02:47:43;0.30;;;0.30;;
35977;SDS011;22056;0.000;0.000;2023-04-24T02:50:09;0.50;;;0.30;;
35977;SDS011;22056;0.000;0.000;2023-04-24T02:52:35;0.50;;;0.38;;
35977;SDS011;22056;0.000;0.000;2023-04-24T02:55:01;0.60;;;0.38;;
35977;SDS011;22056;0.000;0.000;2023-04-24T02:57:28;0.40;;;0.30;;
35977;SDS011;22056;0.000;0.000;2023-04-24T02:59:54;0.30;;;0.30;;
35977;SDS011;22056;0.000;0.000;2023-04-24T03:02:20;0.57;;;0.30;;
35977;SDS011;22056;0.000;0.000;2023-04-24T03:04:46;0.73;;;0.40;;
35977;SDS011;22056;0.000;0.000;2023-04-24T03:07:15;0.40;;;0.38;;
35977;SDS011;22056;0.000;0.000;2023-04-24T03:09:41;0.60;;;0.45;;
35977;SDS011;22056;0.000;0.000;2023-04-24T03:12:08;0.40;;;0.40;;
35977;SDS011;22056;0.000;0.000;2023-04-24T03:14:35;0.73;;;0.30;;
35977;SDS011;22056;0.000;0.000;2023-04-24T03:17:01;0.30;;;0.30;;
35977;SDS011;22056;0.000;0.000;2023-04-24T03:19:27;0.40;;;0.30;;
35977;SDS011;22056;0.000;0.000;2023-04-24T03:21:53;0.38;;;0.38;;
35977;SDS011;22056;0.000;0.000;2023-04-24T03:24:19;0.30;;;0.30;;
35977;SDS011;22056;0.000;0.000;2023-04-24T03:26:45;0.30;;;0.30;;
35977;SDS011;22056;0.000;0.000;2023-04-24T03:29:11;0.38;;;0.38;;
35977;SDS011;22056;0.000;0.000;2023-04-24T03:31:37;0.30;;;0.30;;
35977;SDS011;22056;0.000;0.000;2023-04-24T03:34:04;0.30;;;0.30;;
35977;SDS011;22056;0.000;0.000;2023-04-24T03:36:30;0.85;;;0.40;;
35977;SDS011;22056;0.000;0.000;2023-04-24T03:38:56;0.30;;;0.30;;
35977;SDS011;22056;0.000;0.000;2023-04-24T03:41:22;0.63;;;0.40;;
35977;SDS011;22056;0.000;0.000;2023-04-24T03:43:48;0.43;;;0.32;;
35977;SDS011;22056;0.000;0.000;2023-04-24T03:46:14;0.30;;;0.30;;
35977;SDS011;22056;0.000;0.000;2023-04-24T03:48:41;0.50;;;0.30;;
35977;SDS011;22056;0.000;0.000;2023-04-24T03:51:07;0.65;;;0.40;;
35977;SDS011;22056;0.000;0.000;2023-04-24T03:53:33;0.65;;;0.50;;
35977;SDS011;22056;0.000;0.000;2023-04-24T03:55:59;0.30;;;0.30;;
35977;SDS011;22056;0.000;0.000;2023-04-24T03:58:25;0.30;;;0.30;;
35977;SDS011;22056;0.000;0.000;2023-04-24T04:03:27;0.50;;;0.30;;
35977;SDS011;22056;0.000;0.000;2023-04-24T04:05:53;0.82;;;0.40;;
35977;SDS011;22056;0.000;0.000;2023-04-24T04:08:19;0.38;;;0.38;;
35977;SDS011;22056;0.000;0.000;2023-04-24T04:10:46;0.40;;;0.30;;
35977;SDS011;22056;0.000;0.000;2023-04-24T04:13:12;0.32;;;0.30;;
35977;SDS011;22056;0.000;0.000;2023-04-24T04:15:38;0.30;;;0.30;;
35977;SDS011;22056;0.000;0.000;2023-04-24T04:18:05;0.52;;;0.38;;
35977;SDS011;22056;0.000;0.000;2023-04-24T04:20:31;0.65;;;0.40;;
35977;SDS011;22056;0.000;0.000;2023-04-24T04:22:58;0.30;;;0.30;;
35977;SDS011;22056;0.000;0.000;2023-04-24T04:25:25;0.30;;;0.30;;
35977;SDS011;22056;0.000;0.000;2023-04-24T04:27:51;0.45;;;0.38;;
35977;SDS011;22056;0.000;0.000;2023-04-24T04:30:18;1.55;;;0.40;;
35977;SDS011;22056;0.000;0.000;2023-04-24T04:32:45;0.40;;;0.35;;
35977;SDS011;22056;0.000;0.000;2023-04-24T04:35:12;0.50;;;0.32;;
35977;SDS011;22056;0.000;0.000;2023-04-24T04:37:38;2.13;;;0.40;;
35977;SDS011;22056;0.000;0.000;2023-04-24T04:40:05;0.68;;;0.40;;
35977;SDS011;22056;0.000;0.000;2023-04-24T04:42:32;0.98;;;0.40;;
35977;SDS011;22056;0.000;0.000;2023-04-24T04:44:59;0.85;;;0.55;;
35977;SDS011;22056;0.000;0.000;2023-04-24T04:47:25;1.10;;;0.60;;
35977;SDS011;22056;0.000;0.000;2023-04-24T04:49:53;2.10;;;0.50;;
35977;SDS011;22056;0.000;0.000;2023-04-24T04:52:20;0.77;;;0.50;;
35977;SDS011;22056;0.000;0.000;2023-04-24T04:54:50;2.05;;;0.50;;
35977;SDS011;22056;0.000;0.000;2023-04-24T04:57:16;1.20;;;0.50;;
35977;SDS011;22056;0.000;0.000;2023-04-24T04:59:42;0.75;;;0.50;;
35977;SDS011;22056;0.000;0.000;2023-04-24T05:02:08;2.50;;;0.70;;
35977;SDS011;22056;0.000;0.000;2023-04-24T05:04:34;0.75;;;0.70;;
35977;SDS011;22056;0.000;0.000;2023-04-24T05:07:01;0.98;;;0.40;;
35977;SDS011;22056;0.000;0.000;2023-04-24T05:09:27;3.58;;;0.68;;
35977;SDS011;22056;0.000;0.000;2023-04-24T05:11:54;1.02;;;0.60;;
35977;SDS011;22056;0.000;0.000;2023-04-24T05:14:21;1.48;;;0.52;;
35977;SDS011;22056;0.000;0.000;2023-04-24T05:16:47;1.17;;;0.50;;
35977;SDS011;22056;0.000;0.000;2023-04-24T05:19:13;1.45;;;0.60;;
35977;SDS011;22056;0.000;0.000;2023-04-24T05:21:42;1.63;;;0.50;;
35977;SDS011;22056;0.000;0.000;2023-04-24T05:24:09;1.45;;;0.50;;
35977;SDS011;22056;0.000;0.000;2023-04-24T05:26:35;2.40;;;0.47;;
35977;SDS011;22056;0.000;0.000;2023-04-24T05:29:01;2.38;;;0.60;;
35977;SDS011;22056;0.000;0.000;2023-04-24T05:31:28;1.08;;;0.40;;
35977;SDS011;22056;0.000;0.000;2023-04-24T05:33:54;0.70;;;0.45;;
35977;SDS011;22056;0.000;0.000;2023-04-24T05:36:20;1.10;;;0.50;;
35977;SDS011;22056;0.000;0.000;2023-04-24T05:38:46;2.60;;;0.50;;
35977;SDS011;22056;0.000;0.000;2023-04-24T05:41:12;4.15;;;0.68;;
35977;SDS011;22056;0.000;0.000;2023-04-24T05:43:38;1.70;;;0.60;;
35977;SDS011;22056;0.000;0.000;2023-04-24T05:46:04;1.42;;;0.82;;
35977;SDS011;22056;0.000;0.000;2023-04-24T05:48:30;1.27;;;0.50;;
35977;SDS011;22056;0.000;0.000;2023-04-24T05:50:56;2.53;;;0.77;;
35977;SDS011;22056;0.000;0.000;2023-04-24T05:53:23;1.70;;;0.70;;
35977;SDS011;22056;0.000;0.000;2023-04-24T05:55:49;3.13;;;0.40;;
35977;SDS011;22056;0.000;0.000;2023-04-24T05:58:15;2.53;;;0.75;;
35977;SDS011;22056;0.000;0.000;2023-04-24T06:00:41;2.47;;;0.63;;
35977;SDS011;22056;0.000;0.000;2023-04-24T06:03:08;2.40;;;0.68;;
35977;SDS011;22056;0.000;0.000;2023-04-24T06:05:34;1.25;;;0.70;;
35977;SDS011;22056;0.000;0.000;2023-04-24T06:08:00;2.63;;;0.80;;
35977;SDS011;22056;0.000;0.000;2023-04-24T06:10:26;1.55;;;0.77;;
35977;SDS011;22056;0.000;0.000;2023-04-24T06:12:53;1.45;;;0.75;;
35977;SDS011;22056;0.000;0.000;2023-04-24T06:15:21;1.38;;;0.50;;
35977;SDS011;22056;0.000;0.000;2023-04-24T06:17:47;3.88;;;0.95;;
35977;SDS011;22056;0.000;0.000;2023-04-24T06:20:13;2.05;;;0.70;;
35977;SDS011;22056;0.000;0.000;2023-04-24T06:22:39;3.50;;;0.73;;
35977;SDS011;22056;0.000;0.000;2023-04-24T06:25:06;2.47;;;0.70;;
35977;SDS011;22056;0.000;0.000;2023-04-24T06:27:32;2.10;;;0.50;;
35977;SDS011;22056;0.000;0.000;2023-04-24T06:29:58;2.20;;;0.60;;
35977;SDS011;22056;0.000;0.000;2023-04-24T06:32:25;2.72;;;0.60;;
35977;SDS011;22056;0.000;0.000;2023-04-24T06:34:52;2.08;;;0.80;;
35977;SDS011;22056;0.000;0.000;2023-04-24T06:37:18;4.63;;;0.73;;
35977;SDS011;22056;0.000;0.000;2023-04-24T06:39:45;1.95;;;0.60;;
35977;SDS011;22056;0.000;0.000;2023-04-24T06:42:11;1.08;;;0.60;;
35977;SDS011;22056;0.000;0.000;2023-04-24T06:44:37;4.28;;;0.80;;
35977;SDS011;22056;0.000;0.000;2023-04-24T06:47:12;4.22;;;0.88;;
35977;SDS011;22056;0.000;0.000;2023-04-24T06:49:41;2.63;;;0.70;;
35977;SDS011;22056;0.000;0.000;2023-04-24T06:52:07;3.15;;;0.80;;
35977;SDS011;22056;0.000;0.000;2023-04-24T06:54:34;3.28;;;0.82;;
35977;SDS011;22056;0.000;0.000;2023-04-24T06:57:00;2.05;;;0.70;;
35977;SDS011;22056;0.000;0.000;2023-04-24T06:59:28;1.92;;;0.50;;
35977;SDS011;22056;0.000;0.000;2023-04-24T07:01:54;2.60;;;0.55;;
35977;SDS011;22056;0.000;0.000;2023-04-24T07:04:20;1.83;;;0.60;;
35977;SDS011;22056;0.000;0.000;2023-04-24T07:06:47;3.65;;;0.90;;
35977;SDS011;22056;0.000;0.000;2023-04-24T07:09:14;2.58;;;0.55;;
35977;SDS011;22056;0.000;0.000;2023-04-24T07:11:44;2.90;;;0.75;;
35977;SDS011;22056;0.000;0.000;2023-04-24T07:14:10;1.35;;;0.70;;
35977;SDS011;22056;0.000;0.000;2023-04-24T07:16:37;1.92;;;0.70;;
35977;SDS011;22056;0.000;0.000;2023-04-24T07:19:03;4.22;;;1.20;;
35977;SDS011;22056;0.000;0.000;2023-04-24T07:21:29;2.85;;;0.60;;
35977;SDS011;22056;0.000;0.000;2023-04-24T07:23:57;3.20;;;0.82;;
35977;SDS011;22056;0.000;0.000;2023-04-24T07:26:23;1.85;;;0.70;;
35977;SDS011;22056;0.000;0.000;2023-04-24T07:28:49;3.55;;;0.85;;
35977;SDS011;22056;0.000;0.000;2023-04-24T07:31:15;2.97;;;0.95;;
35977;SDS011;22056;0.000;0.000;2023-04-24T07:33:41;7.47;;;0.80;;
35977;SDS011;22056;0.000;0.000;2023-04-24T07:36:07;3.20;;;0.70;;
35977;SDS011;22056;0.000;0.000;2023-04-24T07:38:40;3.35;;;1.00;;
35977;SDS011;22056;0.000;0.000;2023-04-24T07:41:06;3.13;;;0.70;;
35977;SDS011;22056;0.000;0.000;2023-04-24T07:43:32;5.45;;;0.80;;
35977;SDS011;22056;0.000;0.000;2023-04-24T07:45:58;3.45;;;0.90;;
35977;SDS011;22056;0.000;0.000;2023-04-24T07:48:25;4.88;;;0.90;;
35977;SDS011;22056;0.000;0.000;2023-04-24T07:50:51;3.67;;;0.68;;
35977;SDS011;22056;0.000;0.000;2023-04-24T07:53:17;4.47;;;0.95;;
35977;SDS011;22056;0.000;0.000;2023-04-24T07:55:44;2.88;;;0.90;;
35977;SDS011;22056;0.000;0.000;2023-04-24T07:58:10;2.10;;;0.77;;
35977;SDS011;22056;0.000;0.000;2023-04-24T08:00:36;7.60;;;1.15;;
35977;SDS011;22056;0.000;0.000;2023-04-24T08:03:02;4.25;;;0.95;;
35977;SDS011;22056;0.000;0.000;2023-04-24T08:05:29;6.65;;;0.80;;
35977;SDS011;22056;0.000;0.000;2023-04-24T08:07:55;3.40;;;1.10;;
35977;SDS011;22056;0.000;0.000;2023-04-24T08:10:21;3.67;;;0.90;;
35977;SDS011;22056;0.000;0.000;2023-04-24T08:12:47;4.35;;;0.90;;
35977;SDS011;22056;0.000;0.000;2023-04-24T08:15:14;2.50;;;0.75;;
35977;SDS011;22056;0.000;0.000;2023-04-24T08:17:40;2.63;;;0.90;;
35977;SDS011;22056;0.000;0.000;2023-04-24T08:20:06;5.15;;;1.00;;
35977;SDS011;22056;0.000;0.000;2023-04-24T08:22:38;4.82;;;0.80;;
35977;SDS011;22056;0.000;0.000;2023-04-24T08:25:05;5.40;;;1.00;;
35977;SDS011;22056;0.000;0.000;2023-04-24T08:27:31;4.65;;;1.27;;
35977;SDS011;22056;0.000;0.000;2023-04-24T08:29:57;2.45;;;0.80;;
35977;SDS011;22056;0.000;0.000;2023-04-24T08:32:26;5.05;;;1.20;;
35977;SDS011;22056;0.000;0.000;2023-04-24T08:34:54;3.50;;;0.80;;
35977;SDS011;22056;0.000;0.000;2023-04-24T08:37:21;5.35;;;1.20;;
35977;SDS011;22056;0.000;0.000;2023-04-24T08:39:48;6.13;;;1.13;;
35977;SDS011;22056;0.000;0.000;2023-04-24T08:42:14;3.95;;;1.20;;
35977;SDS011;22056;0.000;0.000;2023-04-24T08:44:41;5.80;;;0.93;;
35977;SDS011;22056;0.000;0.000;2023-04-24T08:47:07;5.30;;;1.20;;
35977;SDS011;22056;0.000;0.000;2023-04-24T08:49:34;4.07;;;1.30;;
35977;SDS011;22056;0.000;0.000;2023-04-24T08:52:02;5.00;;;0.95;;
35977;SDS011;22056;0.000;0.000;2023-04-24T08:54:28;4.68;;;0.93;;
35977;SDS011;22056;0.000;0.000;2023-04-24T08:56:57;3.35;;;1.10;;
35977;SDS011;22056;0.000;0.000;2023-04-24T08:59:26;5.68;;;1.08;;
35977;SDS011;22056;0.000;0.000;2023-04-24T09:01:53;4.25;;;1.02;;
35977;SDS011;22056;0.000;0.000;2023-04-24T09:04:20;3.42;;;0.90;;
35977;SDS011;22056;0.000;0.000;2023-04-24T09:06:49;3.47;;;0.90;;
35977;SDS011;22056;0.000;0.000;2023-04-24T09:09:15;3.88;;;1.00;;
35977;SDS011;22056;0.000;0.000;2023-04-24T09:11:43;3.22;;;1.15;;
35977;SDS011;22056;0.000;0.000;2023-04-24T09:14:09;4.45;;;1.17;;
35977;SDS011;22056;0.000;0.000;2023-04-24T09:16:36;6.25;;;1.08;;
35977;SDS011;22056;0.000;0.000;2023-04-24T09:19:02;4.25;;;0.93;;
35977;SDS011;22056;0.000;0.000;2023-04-24T09:21:32;4.30;;;0.80;;
35977;SDS011;22056;0.000;0.000;2023-04-24T09:24:03;4.78;;;0.98;;
35977;SDS011;22056;0.000;0.000;2023-04-24T09:26:30;11.35;;;1.20;;
35977;SDS011;22056;0.000;0.000;2023-04-24T09:28:57;3.30;;;0.90;;
35977;SDS011;22056;0.000;0.000;2023-04-24T09:31:24;3.67;;;1.23;;
35977;SDS011;22056;0.000;0.000;2023-04-24T09:34:03;3.75;;;1.00;;
35977;SDS011;22056;0.000;0.000;2023-04-24T09:36:33;3.45;;;1.00;;
35977;SDS011;22056;0.000;0.000;2023-04-24T09:39:02;3.63;;;1.00;;
35977;SDS011;22056;0.000;0.000;2023-04-24T09:41:29;6.25;;;1.27;;
35977;SDS011;22056;0.000;0.000;2023-04-24T09:43:56;2.55;;;0.88;;
35977;SDS011;22056;0.000;0.000;2023-04-24T09:46:29;2.50;;;1.10;;
35977;SDS011;22056;0.000;0.000;2023-04-24T09:48:56;3.05;;;0.85;;
35977;SDS011;22056;0.000;0.000;2023-04-24T09:51:35;3.85;;;1.00;;
35977;SDS011;22056;0.000;0.000;2023-04-24T09:54:04;3.42;;;0.90;;
35977;SDS011;22056;0.000;0.000;2023-04-24T09:56:36;6.63;;;1.50;;
35977;SDS011;22056;0.000;0.000;2023-04-24T09:59:08;3.63;;;0.68;;
35977;SDS011;22056;0.000;0.000;2023-04-24T10:01:34;1.77;;;0.93;;
35977;SDS011;22056;0.000;0.000;2023-04-24T10:04:00;3.97;;;0.93;;
35977;SDS011;22056;0.000;0.000;2023-04-24T10:06:31;8.95;;;1.17;;
35977;SDS011;22056;0.000;0.000;2023-04-24T10:08:57;4.00;;;0.88;;
35977;SDS011;22056;0.000;0.000;2023-04-24T10:11:25;1.85;;;0.95;;
35977;SDS011;22056;0.000;0.000;2023-04-24T10:13:52;7.38;;;1.17;;
35977;SDS011;22056;0.000;0.000;2023-04-24T10:16:19;4.22;;;0.80;;
35977;SDS011;22056;0.000;0.000;2023-04-24T10:18:47;4.30;;;1.00;;
35977;SDS011;22056;0.000;0.000;2023-04-24T10:21:14;3.22;;;0.75;;
35977;SDS011;22056;0.000;0.000;2023-04-24T10:23:41;4.40;;;1.08;;
35977;SDS011;22056;0.000;0.000;2023-04-24T10:26:11;3.75;;;1.05;;
35977;SDS011;22056;0.000;0.000;2023-04-24T10:28:43;4.97;;;1.10;;
35977;SDS011;22056;0.000;0.000;2023-04-24T10:31:10;4.97;;;1.05;;
35977;SDS011;22056;0.000;0.000;2023-04-24T10:33:37;2.88;;;1.10;;
35977;SDS011;22056;0.000;0.000;2023-04-24T10:36:06;8.00;;;0.85;;
35977;SDS011;22056;0.000;0.000;2023-04-24T10:38:33;4.40;;;1.05;;
35977;SDS011;22056;0.000;0.000;2023-04-24T10:41:09;4.68;;;0.93;;
35977;SDS011;22056;0.000;0.000;2023-04-24T10:43:41;3.97;;;1.00;;
35977;SDS011;22056;0.000;0.000;2023-04-24T10:46:08;3.83;;;1.10;;
35977;SDS011;22056;0.000;0.000;2023-04-24T10:48:35;3.83;;;1.25;;
35977;SDS011;22056;0.000;0.000;2023-04-24T10:51:01;4.22;;;0.90;;
35977;SDS011;22056;0.000;0.000;2023-04-24T10:53:28;3.58;;;1.08;;
35977;SDS011;22056;0.000;0.000;2023-04-24T10:58:24;2.58;;;0.70;;
35977;SDS011;22056;0.000;0.000;2023-04-24T11:01:00;2.55;;;0.82;;
35977;SDS011;22056;0.000;0.000;2023-04-24T11:03:31;4.90;;;1.15;;
35977;SDS011;22056;0.000;0.000;2023-04-24T11:08:25;5.45;;;1.13;;
35977;SDS011;22056;0.000;0.000;2023-04-24T11:19:10;2.28;;;1.05;;
35977;SDS011;22056;0.000;0.000;2023-04-24T11:22:04;2.38;;;1.10;;
35977;SDS011;22056;0.000;0.000;2023-04-24T11:32:14;3.20;;;0.77;;
35977;SDS011;22056;0.000;0.000;2023-04-24T11:37:09;3.60;;;1.23;;
35977;SDS011;22056;0.000;0.000;2023-04-24T11:39:36;3.97;;;1.23;;
35977;SDS011;22056;0.000;0.000;2023-04-24T11:42:02;5.40;;;1.17;;
35977;SDS011;22056;0.000;0.000;2023-04-24T11:44:30;5.05;;;1.20;;
35977;SDS011;22056;0.000;0.000;2023-04-24T11:46:57;7.35;;;1.33;;
35977;SDS011;22056;0.000;0.000;2023-04-24T11:49:23;10.38;;;1.50;;
35977;SDS011;22056;0.000;0.000;2023-04-24T11:51:49;5.65;;;1.60;;
35977;SDS011;22056;0.000;0.000;2023-04-24T11:54:16;7.55;;;1.98;;
35977;SDS011;22056;0.000;0.000;2023-04-24T11:56:46;6.05;;;1.80;;
35977;SDS011;22056;0.000;0.000;2023-04-24T11:59:12;9.13;;;1.77;;
35977;SDS011;22056;0.000;0.000;2023-04-24T12:01:48;8.20;;;2.00;;
35977;SDS011;22056;0.000;0.000;2023-04-24T12:04:15;8.32;;;1.70;;
35977;SDS011;22056;0.000;0.000;2023-04-24T12:07:03;3.80;;;1.27;;
35977;SDS011;22056;0.000;0.000;2023-04-24T12:09:40;8.07;;;1.73;;
35977;SDS011;22056;0.000;0.000;2023-04-24T12:12:07;4.93;;;1.45;;
35977;SDS011;22056;0.000;0.000;2023-04-24T12:14:41;5.18;;;1.52;;
35977;SDS011;22056;0.000;0.000;2023-04-24T12:17:07;10.30;;;1.67;;
35977;SDS011;22056;0.000;0.000;2023-04-24T12:19:33;7.05;;;1.35;;
35977;SDS011;22056;0.000;0.000;2023-04-24T12:22:03;7.80;;;1.67;;
35977;SDS011;22056;0.000;0.000;2023-04-24T12:24:30;5.75;;;1.83;;
35977;SDS011;22056;0.000;0.000;2023-04-24T12:26:56;9.18;;;1.35;;
35977;SDS011;22056;0.000;0.000;2023-04-24T12:29:23;7.45;;;1.92;;
35977;SDS011;22056;0.000;0.000;2023-04-24T12:31:50;6.43;;;1.60;;
35977;SDS011;22056;0.000;0.000;2023-04-24T12:34:20;6.13;;;1.25;;
35977;SDS011;22056;0.000;0.000;2023-04-24T12:36:47;5.05;;;1.58;;
35977;SDS011;22056;0.000;0.000;2023-04-24T12:39:16;4.18;;;1.45;;
35977;SDS011;22056;0.000;0.000;2023-04-24T12:41:56;6.47;;;1.75;;
35977;SDS011;22056;0.000;0.000;2023-04-24T12:44:31;4.72;;;1.35;;
35977;SDS011;22056;0.000;0.000;2023-04-24T12:46:59;4.95;;;1.30;;
35977;SDS011;22056;0.000;0.000;2023-04-24T12:49:26;5.93;;;1.23;;
35977;SDS011;22056;0.000;0.000;2023-04-24T12:51:52;6.28;;;1.20;;
35977;SDS011;22056;0.000;0.000;2023-04-24T12:54:19;5.43;;;1.23;;
35977;SDS011;22056;0.000;0.000;2023-04-24T12:56:45;6.40;;;1.45;;
35977;SDS011;22056;0.000;0.000;2023-04-24T12:59:11;4.05;;;1.20;;
35977;SDS011;22056;0.000;0.000;2023-04-24T13:01:37;7.13;;;1.40;;
35977;SDS011;22056;0.000;0.000;2023-04-24T13:04:04;8.82;;;1.58;;
35977;SDS011;22056;0.000;0.000;2023-04-24T13:06:30;5.65;;;1.00;;
35977;SDS011;22056;0.000;0.000;2023-04-24T13:08:56;5.90;;;1.38;;
35977;SDS011;22056;0.000;0.000;2023-04-24T13:11:23;7.82;;;1.50;;
35977;SDS011;22056;0.000;0.000;2023-04-24T13:13:49;8.15;;;1.40;;
35977;SDS011;22056;0.000;0.000;2023-04-24T13:16:15;9.18;;;1.73;;
35977;SDS011;22056;0.000;0.000;2023-04-24T13:18:42;8.52;;;1.40;;
35977;SDS011;22056;0.000;0.000;2023-04-24T13:21:08;6.13;;;1.65;;
35977;SDS011;22056;0.000;0.000;2023-04-24T13:23:34;12.75;;;1.60;;
35977;SDS011;22056;0.000;0.000;2023-04-24T13:26:00;5.75;;;1.23;;
35977;SDS011;22056;0.000;0.000;2023-04-24T13:28:27;8.43;;;2.13;;
35977;SDS011;22056;0.000;0.000;2023-04-24T13:30:54;8.20;;;1.67;;
35977;SDS011;22056;0.000;0.000;2023-04-24T13:33:20;7.10;;;1.40;;
35977;SDS011;22056;0.000;0.000;2023-04-24T13:35:46;5.63;;;1.27;;
35977;SDS011;22056;0.000;0.000;2023-04-24T13:38:13;7.95;;;1.40;;
35977;SDS011;22056;0.000;0.000;2023-04-24T13:40:39;4.13;;;1.33;;
35977;SDS011;22056;0.000;0.000;2023-04-24T13:43:05;6.07;;;1.50;;
35977;SDS011;22056;0.000;0.000;2023-04-24T13:45:31;5.97;;;1.00;;
35977;SDS011;22056;0.000;0.000;2023-04-24T13:47:57;4.25;;;1.38;;
35977;SDS011;22056;0.000;0.000;2023-04-24T13:50:23;5.00;;;1.10;;
35977;SDS011;22056;0.000;0.000;2023-04-24T13:52:49;6.05;;;1.23;;
35977;SDS011;22056;0.000;0.000;2023-04-24T13:55:16;10.77;;;1.60;;
35977;SDS011;22056;0.000;0.000;2023-04-24T13:57:42;3.10;;;1.23;;
35977;SDS011;22056;0.000;0.000;2023-04-24T14:00:08;6.30;;;1.60;;
35977;SDS011;22056;0.000;0.000;2023-04-24T14:02:36;5.88;;;1.35;;
35977;SDS011;22056;0.000;0.000;2023-04-24T14:05:02;3.95;;;1.40;;
35977;SDS011;22056;0.000;0.000;2023-04-24T14:07:28;6.45;;;1.50;;
35977;SDS011;22056;0.000;0.000;2023-04-24T14:09:55;5.72;;;1.55;;
35977;SDS011;22056;0.000;0.000;2023-04-24T14:12:21;8.52;;;1.80;;
35977;SDS011;22056;0.000;0.000;2023-04-24T14:14:48;6.30;;;1.15;;
35977;SDS011;22056;0.000;0.000;2023-04-24T14:17:14;5.38;;;1.00;;
35977;SDS011;22056;0.000;0.000;2023-04-24T14:19:40;6.43;;;1.42;;
35977;SDS011;22056;0.000;0.000;2023-04-24T14:22:07;8.07;;;1.17;;
35977;SDS011;22056;0.000;0.000;2023-04-24T14:24:33;4.75;;;1.23;;
35977;SDS011;22056;0.000;0.000;2023-04-24T14:26:59;4.68;;;1.30;;
35977;SDS011;22056;0.000;0.000;2023-04-24T14:29:25;6.25;;;1.27;;
35977;SDS011;22056;0.000;0.000;2023-04-24T14:31:51;6.03;;;1.40;;
35977;SDS011;22056;0.000;0.000;2023-04-24T14:34:17;4.63;;;1.10;;
35977;SDS011;22056;0.000;0.000;2023-04-24T14:36:44;5.32;;;1.27;;
35977;SDS011;22056;0.000;0.000;2023-04-24T14:39:10;8.80;;;1.70;;
35977;SDS011;22056;0.000;0.000;2023-04-24T14:41:37;4.30;;;1.33;;
35977;SDS011;22056;0.000;0.000;2023-04-24T14:44:04;3.97;;;1.13;;
35977;SDS011;22056;0.000;0.000;2023-04-24T14:46:31;6.95;;;1.70;;
35977;SDS011;22056;0.000;0.000;2023-04-24T14:48:57;5.97;;;1.30;;
35977;SDS011;22056;0.000;0.000;2023-04-24T14:51:23;5.10;;;1.48;;
35977;SDS011;22056;0.000;0.000;2023-04-24T14:53:50;7.68;;;1.67;;
35977;SDS011;22056;0.000;0.000;2023-04-24T14:56:16;3.88;;;1.05;;
35977;SDS011;22056;0.000;0.000;2023-04-24T14:58:43;7.93;;;2.05;;
35977;SDS011;22056;0.000;0.000;2023-04-24T15:01:09;4.47;;;0.90;;
35977;SDS011;22056;0.000;0.000;2023-04-24T15:03:36;7.07;;;1.40;;
35977;SDS011;22056;0.000;0.000;2023-04-24T15:06:02;5.05;;;1.27;;
35977;SDS011;22056;0.000;0.000;2023-04-24T15:08:28;5.70;;;1.17;;
35977;SDS011;22056;0.000;0.000;2023-04-24T15:10:54;4.28;;;1.50;;
35977;SDS011;22056;0.000;0.000;2023-04-24T15:13:20;4.53;;;1.25;;
35977;SDS011;22056;0.000;0.000;2023-04-24T15:15:47;4.43;;;1.42;;
35977;SDS011;22056;0.000;0.000;2023-04-24T15:18:13;4.13;;;1.15;;
35977;SDS011;22056;0.000;0.000;2023-04-24T15:20:39;5.88;;;1.20;;
35977;SDS011;22056;0.000;0.000;2023-04-24T15:23:07;4.20;;;1.08;;
35977;SDS011;22056;0.000;0.000;2023-04-24T15:25:34;5.50;;;1.10;;